CST,Max TemperatureF,Mean TemperatureF,Min TemperatureF,Max Dew PointF,MeanDew PointF,Min DewpointF,Max Humidity, Mean Humidity, Min Humidity, Max Sea Level PressureIn, Mean Sea Level PressureIn, Min Sea Level PressureIn, Max VisibilityMiles, Mean VisibilityMiles, Min VisibilityMiles, Max Wind SpeedMPH, Mean Wind SpeedMPH, Max Gust SpeedMPH,PrecipitationIn, CloudCover, Events, WindDirDegrees
2013-2-1,10,5,0,7,-2,-8,85,70,60,30.35,30.26,30.17,10,8,2,16,13,28,0.00,3,Snow,258
2013-2-2,15,10,6,12,6,-2,93,79,59,30.17,30.08,30.02,10,5,1,13,7,,0.04,7,Snow,305
2013-2-3,19,13,7,12,6,-2,86,71,57,30.08,30.03,29.98,10,8,2,18,7,25,0.00,6,Snow,275
2013-2-4,32,24,15,19,14,0,93,74,31,30.05,29.95,29.90,10,4,1,17,6,22,0.06,7,Snow,348
2013-2-5,30,20,10,21,16,-1,88,71,30,30.12,29.88,29.78,10,6,0,15,7,21,0.01,7,Fog-Snow,262
2013-2-6,34,20,6,28,18,4,92,77,61,30.27,30.20,30.12,10,8,5,13,5,,0.00,3,,194
2013-2-7,33,30,26,32,30,25,100,92,81,30.14,30.02,29.90,5,2,0,18,11,29,0.72,8,Fog-Rain-Snow,140
2013-2-8,26,24,19,25,21,17,93,88,84,30.43,30.24,29.99,10,8,2,21,15,31,0.00,8,Snow,324
2013-2-9,32,21,12,28,19,10,100,89,78,30.43,30.30,30.13,10,6,0,13,5,18,0.00,4,Fog,219
2013-2-10,43,36,30,39,35,27,100,93,70,30.11,29.71,29.47,10,5,0,22,13,30,0.25,7,Fog-Rain-Snow,161
2013-2-11,41,34,27,31,24,19,82,73,64,30.01,29.71,29.46,10,9,2,24,17,44,0.00,8,Snow,257
2013-2-12,27,23,19,19,17,16,89,76,69,30.12,30.03,29.92,10,10,8,14,9,21,0.00,5,,252
2013-2-13,39,29,19,29,24,17,92,78,57,29.90,29.79,29.73,10,8,4,9,6,,0.00,2,,236
2013-2-14,36,33,28,34,28,21,93,79,69,29.99,29.75,29.61,10,9,6,17,9,32,0.00,7,Rain,257
2013-2-15,28,23,16,25,13,3,88,66,46,30.21,30.13,29.99,10,8,2,14,9,18,0.01,4,Snow,324
2013-2-16,18,13,8,4,1,-2,76,59,45,30.23,30.19,30.16,10,10,10,14,8,22,0.00,2,,303
2013-2-17,28,18,7,18,3,-3,67,56,38,30.25,30.19,30.03,10,10,10,15,6,25,0.00,0,,216
2013-2-18,48,38,28,43,34,18,100,82,61,30.01,29.58,29.39,10,7,2,21,13,32,0.35,5,Rain-Snow,184
2013-2-19,33,22,10,30,11,-2,93,74,58,30.18,29.77,29.48,10,7,2,26,18,36,0.00,7,Snow,279
2013-2-20,19,13,7,10,5,-2,74,64,57,30.40,30.34,30.20,10,10,10,15,10,22,0.00,2,,303
2013-2-21,28,23,18,25,19,11,93,82,68,30.43,30.32,30.11,10,10,10,22,10,30,0.00,8,,20
2013-2-22,32,29,26,28,26,23,96,89,79,30.07,29.89,29.79,10,4,0,23,15,32,0.07,8,Fog-Snow,173
2013-2-23,28,24,19,24,18,14,85,75,64,29.96,29.91,29.85,10,9,5,14,9,21,0.00,5,,244
2013-2-24,36,26,17,25,18,14,92,76,57,30.18,30.09,29.98,10,9,5,9,6,,0.00,1,,259
2013-2-25,36,26,16,29,23,14,92,79,59,30.20,30.15,30.06,10,9,5,12,3,,0.00,0,,113
2013-2-26,35,32,30,32,29,25,100,87,70,30.03,29.73,29.57,10,5,0,26,18,36,0.15,5,Fog-Snow,46
2013-2-27,34,33,32,34,32,30,100,96,87,29.74,29.61,29.54,4,2,0,21,15,31,0.33,8,Fog-Snow,3
2013-2-28,33,30,26,31,26,19,96,81,69,30.11,29.92,29.72,10,8,2,24,16,32,0.00,8,Snow,353